sensor_id;sensor_type;location;lat;lon;timestamp;P1;durP1;ratioP1;P2;durP2;ratioP2
76298;SDS011;65236;42.332;23.550;2022-12-07T00:01:37;15.02;;;10.88;;
76298;SDS011;65236;42.332;23.550;2022-12-07T00:04:04;13.27;;;11.07;;
76298;SDS011;65236;42.332;23.550;2022-12-07T00:06:32;14.73;;;10.97;;
76298;SDS011;65236;42.332;23.550;2022-12-07T00:09:06;14.40;;;10.93;;
76298;SDS011;65236;42.332;23.550;2022-12-07T00:11:34;12.95;;;10.98;;
76298;SDS011;65236;42.332;23.550;2022-12-07T00:14:01;7.47;;;6.97;;
76298;SDS011;65236;42.332;23.550;2022-12-07T00:16:29;7.47;;;6.97;;
76298;SDS011;65236;42.332;23.550;2022-12-07T00:18:56;7.70;;;7.20;;
76298;SDS011;65236;42.332;23.550;2022-12-07T00:21:24;10.27;;;9.52;;
76298;SDS011;65236;42.332;23.550;2022-12-07T00:23:51;10.15;;;9.20;;
76298;SDS011;65236;42.332;23.550;2022-12-07T00:26:22;16.37;;;11.97;;
76298;SDS011;65236;42.332;23.550;2022-12-07T00:28:59;10.15;;;9.13;;
76298;SDS011;65236;42.332;23.550;2022-12-07T00:31:31;10.60;;;9.30;;
76298;SDS011;65236;42.332;23.550;2022-12-07T00:34:00;13.20;;;10.95;;
76298;SDS011;65236;42.332;23.550;2022-12-07T00:36:26;16.15;;;10.88;;
76298;SDS011;65236;42.332;23.550;2022-12-07T00:38:52;11.20;;;9.97;;
76298;SDS011;65236;42.332;23.550;2022-12-07T00:41:19;9.27;;;8.60;;
76298;SDS011;65236;42.332;23.550;2022-12-07T00:43:46;9.80;;;9.10;;
76298;SDS011;65236;42.332;23.550;2022-12-07T00:46:12;8.77;;;8.18;;
76298;SDS011;65236;42.332;23.550;2022-12-07T00:48:39;8.83;;;8.23;;
76298;SDS011;65236;42.332;23.550;2022-12-07T00:51:05;9.48;;;8.88;;
76298;SDS011;65236;42.332;23.550;2022-12-07T00:53:31;8.38;;;7.88;;
76298;SDS011;65236;42.332;23.550;2022-12-07T00:56:04;8.57;;;8.07;;
76298;SDS011;65236;42.332;23.550;2022-12-07T00:58:33;8.25;;;7.55;;
76298;SDS011;65236;42.332;23.550;2022-12-07T01:00:59;8.70;;;8.00;;
76298;SDS011;65236;42.332;23.550;2022-12-07T01:03:26;10.85;;;9.65;;
76298;SDS011;65236;42.332;23.550;2022-12-07T01:05:52;17.57;;;12.27;;
76298;SDS011;65236;42.332;23.550;2022-12-07T01:08:19;14.05;;;11.02;;
76298;SDS011;65236;42.332;23.550;2022-12-07T01:10:45;9.93;;;8.00;;
76298;SDS011;65236;42.332;23.550;2022-12-07T01:13:10;9.00;;;8.32;;
76298;SDS011;65236;42.332;23.550;2022-12-07T01:15:42;9.50;;;8.87;;
76298;SDS011;65236;42.332;23.550;2022-12-07T01:18:09;8.63;;;8.13;;
76298;SDS011;65236;42.332;23.550;2022-12-07T01:20:35;8.00;;;7.50;;
76298;SDS011;65236;42.332;23.550;2022-12-07T01:23:01;9.38;;;8.77;;
76298;SDS011;65236;42.332;23.550;2022-12-07T01:25:27;9.30;;;8.70;;
76298;SDS011;65236;42.332;23.550;2022-12-07T01:27:53;7.50;;;7.00;;
76298;SDS011;65236;42.332;23.550;2022-12-07T01:30:18;13.37;;;10.63;;
76298;SDS011;65236;42.332;23.550;2022-12-07T01:32:43;19.57;;;13.43;;
76298;SDS011;65236;42.332;23.550;2022-12-07T01:35:09;24.47;;;14.47;;
76298;SDS011;65236;42.332;23.550;2022-12-07T01:37:35;17.60;;;12.70;;
76298;SDS011;65236;42.332;23.550;2022-12-07T01:40:01;13.50;;;11.03;;
76298;SDS011;65236;42.332;23.550;2022-12-07T01:42:28;15.68;;;12.45;;
76298;SDS011;65236;42.332;23.550;2022-12-07T01:48:02;25.47;;;15.33;;
76298;SDS011;65236;42.332;23.550;2022-12-07T01:50:29;23.85;;;14.57;;
76298;SDS011;65236;42.332;23.550;2022-12-07T01:52:57;21.50;;;12.73;;
76298;SDS011;65236;42.332;23.550;2022-12-07T01:55:25;15.32;;;11.75;;
76298;SDS011;65236;42.332;23.550;2022-12-07T01:57:52;14.02;;;11.25;;
76298;SDS011;65236;42.332;23.550;2022-12-07T02:00:18;12.80;;;11.13;;
76298;SDS011;65236;42.332;23.550;2022-12-07T02:03:07;13.73;;;11.52;;
76298;SDS011;65236;42.332;23.550;2022-12-07T02:05:30;13.10;;;11.40;;
76298;SDS011;65236;42.332;23.550;2022-12-07T02:07:57;11.65;;;9.65;;
76298;SDS011;65236;42.332;23.550;2022-12-07T02:10:27;13.15;;;11.00;;
76298;SDS011;65236;42.332;23.550;2022-12-07T02:12:58;14.50;;;11.80;;
76298;SDS011;65236;42.332;23.550;2022-12-07T02:15:36;14.38;;;11.27;;
76298;SDS011;65236;42.332;23.550;2022-12-07T02:31:33;22.08;;;14.60;;
76298;SDS011;65236;42.332;23.550;2022-12-07T02:34:04;25.73;;;15.27;;
76298;SDS011;65236;42.332;23.550;2022-12-07T02:36:39;26.98;;;16.20;;
76298;SDS011;65236;42.332;23.550;2022-12-07T02:39:14;25.95;;;15.80;;
76298;SDS011;65236;42.332;23.550;2022-12-07T02:41:46;21.65;;;14.02;;
76298;SDS011;65236;42.332;23.550;2022-12-07T02:44:14;21.10;;;12.40;;
76298;SDS011;65236;42.332;23.550;2022-12-07T02:46:48;24.83;;;14.82;;
76298;SDS011;65236;42.332;23.550;2022-12-07T02:49:19;27.10;;;15.68;;
76298;SDS011;65236;42.332;23.550;2022-12-07T02:51:48;23.50;;;13.73;;
76298;SDS011;65236;42.332;23.550;2022-12-07T02:54:15;19.00;;;12.57;;
76298;SDS011;65236;42.332;23.550;2022-12-07T03:02:00;15.20;;;11.85;;
76298;SDS011;65236;42.332;23.550;2022-12-07T03:04:43;21.85;;;14.20;;
76298;SDS011;65236;42.332;23.550;2022-12-07T03:18:42;24.88;;;15.20;;
76298;SDS011;65236;42.332;23.550;2022-12-07T03:21:17;28.25;;;16.67;;
76298;SDS011;65236;42.332;23.550;2022-12-07T03:23:46;24.23;;;15.23;;
76298;SDS011;65236;42.332;23.550;2022-12-07T03:26:16;23.58;;;14.15;;
76298;SDS011;65236;42.332;23.550;2022-12-07T03:28:44;17.95;;;11.23;;
76298;SDS011;65236;42.332;23.550;2022-12-07T03:32:00;16.00;;;11.85;;
76298;SDS011;65236;42.332;23.550;2022-12-07T03:34:12;21.42;;;14.52;;
76298;SDS011;65236;42.332;23.550;2022-12-07T03:36:45;22.17;;;14.20;;
76298;SDS011;65236;42.332;23.550;2022-12-07T03:41:54;18.40;;;12.30;;
76298;SDS011;65236;42.332;23.550;2022-12-07T03:44:20;23.73;;;14.63;;
76298;SDS011;65236;42.332;23.550;2022-12-07T03:49:37;20.17;;;13.67;;
76298;SDS011;65236;42.332;23.550;2022-12-07T03:54:58;14.77;;;10.88;;
76298;SDS011;65236;42.332;23.550;2022-12-07T03:57:44;15.48;;;10.63;;
76298;SDS011;65236;42.332;23.550;2022-12-07T04:00:12;16.17;;;10.60;;
76298;SDS011;65236;42.332;23.550;2022-12-07T04:02:38;14.67;;;10.57;;
76298;SDS011;65236;42.332;23.550;2022-12-07T04:05:05;14.82;;;10.80;;
76298;SDS011;65236;42.332;23.550;2022-12-07T04:07:30;13.65;;;10.73;;
76298;SDS011;65236;42.332;23.550;2022-12-07T04:09:56;18.50;;;12.97;;
76298;SDS011;65236;42.332;23.550;2022-12-07T04:12:22;24.77;;;14.83;;
76298;SDS011;65236;42.332;23.550;2022-12-07T04:14:47;22.63;;;13.57;;
76298;SDS011;65236;42.332;23.550;2022-12-07T04:17:13;18.73;;;11.83;;
76298;SDS011;65236;42.332;23.550;2022-12-07T04:19:38;14.88;;;9.70;;
76298;SDS011;65236;42.332;23.550;2022-12-07T04:22:04;13.50;;;10.00;;
76298;SDS011;65236;42.332;23.550;2022-12-07T04:24:30;15.18;;;11.55;;
76298;SDS011;65236;42.332;23.550;2022-12-07T04:26:56;13.57;;;10.40;;
76298;SDS011;65236;42.332;23.550;2022-12-07T04:29:22;12.97;;;9.67;;
76298;SDS011;65236;42.332;23.550;2022-12-07T04:31:48;12.13;;;10.85;;
76298;SDS011;65236;42.332;23.550;2022-12-07T04:34:13;19.27;;;13.37;;
76298;SDS011;65236;42.332;23.550;2022-12-07T04:36:39;23.85;;;14.13;;
76298;SDS011;65236;42.332;23.550;2022-12-07T04:39:06;23.67;;;14.52;;
76298;SDS011;65236;42.332;23.550;2022-12-07T04:41:33;16.25;;;12.18;;
76298;SDS011;65236;42.332;23.550;2022-12-07T04:44:00;15.67;;;11.17;;
76298;SDS011;65236;42.332;23.550;2022-12-07T04:46:28;14.88;;;11.73;;
76298;SDS011;65236;42.332;23.550;2022-12-07T04:48:54;12.02;;;10.48;;
76298;SDS011;65236;42.332;23.550;2022-12-07T04:51:21;13.43;;;11.43;;
76298;SDS011;65236;42.332;23.550;2022-12-07T04:53:48;14.65;;;10.80;;
76298;SDS011;65236;42.332;23.550;2022-12-07T04:56:14;14.45;;;10.85;;
76298;SDS011;65236;42.332;23.550;2022-12-07T04:58:41;14.40;;;10.27;;
76298;SDS011;65236;42.332;23.550;2022-12-07T05:01:08;15.18;;;10.82;;
76298;SDS011;65236;42.332;23.550;2022-12-07T05:03:33;23.00;;;15.07;;
76298;SDS011;65236;42.332;23.550;2022-12-07T05:05:59;28.37;;;16.30;;
76298;SDS011;65236;42.332;23.550;2022-12-07T05:08:24;19.77;;;12.53;;
76298;SDS011;65236;42.332;23.550;2022-12-07T05:10:50;16.67;;;10.48;;
76298;SDS011;65236;42.332;23.550;2022-12-07T05:13:15;11.53;;;9.70;;
76298;SDS011;65236;42.332;23.550;2022-12-07T05:15:40;14.13;;;10.47;;
76298;SDS011;65236;42.332;23.550;2022-12-07T05:18:08;12.55;;;10.85;;
76298;SDS011;65236;42.332;23.550;2022-12-07T05:20:34;14.77;;;10.87;;
76298;SDS011;65236;42.332;23.550;2022-12-07T05:23:00;12.30;;;10.35;;
76298;SDS011;65236;42.332;23.550;2022-12-07T05:25:25;14.13;;;9.97;;
76298;SDS011;65236;42.332;23.550;2022-12-07T05:27:50;21.40;;;14.67;;
76298;SDS011;65236;42.332;23.550;2022-12-07T05:30:16;21.50;;;13.03;;
76298;SDS011;65236;42.332;23.550;2022-12-07T05:32:41;15.32;;;10.20;;
76298;SDS011;65236;42.332;23.550;2022-12-07T05:35:07;13.33;;;9.70;;
76298;SDS011;65236;42.332;23.550;2022-12-07T05:37:33;16.60;;;11.43;;
76298;SDS011;65236;42.332;23.550;2022-12-07T05:39:58;14.83;;;9.90;;
76298;SDS011;65236;42.332;23.550;2022-12-07T05:42:23;14.83;;;11.70;;
76298;SDS011;65236;42.332;23.550;2022-12-07T05:44:49;16.57;;;12.40;;
76298;SDS011;65236;42.332;23.550;2022-12-07T05:47:14;14.02;;;10.02;;
76298;SDS011;65236;42.332;23.550;2022-12-07T05:49:40;18.37;;;13.17;;
76298;SDS011;65236;42.332;23.550;2022-12-07T05:52:06;21.75;;;14.02;;
76298;SDS011;65236;42.332;23.550;2022-12-07T05:54:32;25.43;;;14.97;;
76298;SDS011;65236;42.332;23.550;2022-12-07T05:56:58;21.52;;;13.00;;
76298;SDS011;65236;42.332;23.550;2022-12-07T05:59:23;16.33;;;11.93;;
76298;SDS011;65236;42.332;23.550;2022-12-07T06:01:53;13.15;;;11.57;;
76298;SDS011;65236;42.332;23.550;2022-12-07T06:04:28;16.02;;;12.15;;
76298;SDS011;65236;42.332;23.550;2022-12-07T06:06:55;13.38;;;11.73;;
76298;SDS011;65236;42.332;23.550;2022-12-07T06:09:21;16.23;;;11.43;;
76298;SDS011;65236;42.332;23.550;2022-12-07T06:11:48;14.52;;;11.30;;
76298;SDS011;65236;42.332;23.550;2022-12-07T06:14:32;14.02;;;11.38;;
76298;SDS011;65236;42.332;23.550;2022-12-07T06:16:58;18.00;;;12.10;;
76298;SDS011;65236;42.332;23.550;2022-12-07T06:19:23;13.95;;;11.60;;
76298;SDS011;65236;42.332;23.550;2022-12-07T06:21:49;14.07;;;12.20;;
76298;SDS011;65236;42.332;23.550;2022-12-07T06:24:14;13.10;;;10.43;;
76298;SDS011;65236;42.332;23.550;2022-12-07T06:26:41;17.65;;;12.88;;
76298;SDS011;65236;42.332;23.550;2022-12-07T06:29:08;24.20;;;14.63;;
76298;SDS011;65236;42.332;23.550;2022-12-07T06:31:34;32.37;;;17.73;;
76298;SDS011;65236;42.332;23.550;2022-12-07T06:34:02;23.17;;;14.32;;
76298;SDS011;65236;42.332;23.550;2022-12-07T06:36:38;30.55;;;17.02;;
76298;SDS011;65236;42.332;23.550;2022-12-07T06:39:04;19.80;;;13.97;;
76298;SDS011;65236;42.332;23.550;2022-12-07T06:41:30;14.57;;;10.45;;
76298;SDS011;65236;42.332;23.550;2022-12-07T06:43:56;12.88;;;11.10;;
76298;SDS011;65236;42.332;23.550;2022-12-07T06:46:21;16.53;;;12.47;;
76298;SDS011;65236;42.332;23.550;2022-12-07T06:48:47;16.15;;;11.60;;
76298;SDS011;65236;42.332;23.550;2022-12-07T06:51:13;14.17;;;10.97;;
76298;SDS011;65236;42.332;23.550;2022-12-07T06:53:38;14.50;;;12.23;;
76298;SDS011;65236;42.332;23.550;2022-12-07T06:56:04;18.40;;;13.03;;
76298;SDS011;65236;42.332;23.550;2022-12-07T06:58:30;21.13;;;13.10;;
76298;SDS011;65236;42.332;23.550;2022-12-07T07:00:55;24.38;;;15.57;;
76298;SDS011;65236;42.332;23.550;2022-12-07T07:03:21;18.93;;;13.23;;
76298;SDS011;65236;42.332;23.550;2022-12-07T07:05:47;14.82;;;11.43;;
76298;SDS011;65236;42.332;23.550;2022-12-07T07:08:12;11.93;;;10.57;;
76298;SDS011;65236;42.332;23.550;2022-12-07T07:10:38;14.77;;;11.25;;
76298;SDS011;65236;42.332;23.550;2022-12-07T07:13:04;19.43;;;12.23;;
76298;SDS011;65236;42.332;23.550;2022-12-07T07:15:30;14.88;;;11.43;;
76298;SDS011;65236;42.332;23.550;2022-12-07T07:17:56;14.05;;;11.35;;
76298;SDS011;65236;42.332;23.550;2022-12-07T07:20:22;15.77;;;11.53;;
76298;SDS011;65236;42.332;23.550;2022-12-07T07:22:48;20.17;;;13.63;;
76298;SDS011;65236;42.332;23.550;2022-12-07T07:25:14;25.67;;;15.05;;
76298;SDS011;65236;42.332;23.550;2022-12-07T07:27:40;13.77;;;12.15;;
76298;SDS011;65236;42.332;23.550;2022-12-07T07:30:06;9.80;;;9.00;;
76298;SDS011;65236;42.332;23.550;2022-12-07T07:32:32;9.00;;;8.40;;
76298;SDS011;65236;42.332;23.550;2022-12-07T07:34:58;8.35;;;7.85;;
76298;SDS011;65236;42.332;23.550;2022-12-07T07:37:23;8.00;;;7.40;;
76298;SDS011;65236;42.332;23.550;2022-12-07T07:39:49;8.57;;;8.07;;
76298;SDS011;65236;42.332;23.550;2022-12-07T07:42:14;10.27;;;9.57;;
76298;SDS011;65236;42.332;23.550;2022-12-07T07:44:40;8.03;;;7.53;;
76298;SDS011;65236;42.332;23.550;2022-12-07T07:47:05;13.23;;;11.97;;
76298;SDS011;65236;42.332;23.550;2022-12-07T07:49:31;14.40;;;11.60;;
76298;SDS011;65236;42.332;23.550;2022-12-07T07:51:56;14.63;;;12.57;;
76298;SDS011;65236;42.332;23.550;2022-12-07T07:54:22;10.23;;;9.40;;
76298;SDS011;65236;42.332;23.550;2022-12-07T07:56:47;10.00;;;9.40;;
76298;SDS011;65236;42.332;23.550;2022-12-07T07:59:12;11.23;;;10.37;;
76298;SDS011;65236;42.332;23.550;2022-12-07T08:01:39;11.52;;;10.75;;
76298;SDS011;65236;42.332;23.550;2022-12-07T08:04:05;11.80;;;11.07;;
76298;SDS011;65236;42.332;23.550;2022-12-07T08:06:30;9.88;;;9.27;;
76298;SDS011;65236;42.332;23.550;2022-12-07T08:08:55;11.97;;;10.87;;
76298;SDS011;65236;42.332;23.550;2022-12-07T08:11:23;14.05;;;12.65;;
76298;SDS011;65236;42.332;23.550;2022-12-07T08:13:49;19.93;;;14.53;;
76298;SDS011;65236;42.332;23.550;2022-12-07T08:16:14;22.48;;;15.23;;
76298;SDS011;65236;42.332;23.550;2022-12-07T08:18:40;15.40;;;13.90;;
76298;SDS011;65236;42.332;23.550;2022-12-07T08:21:06;13.25;;;12.30;;
76298;SDS011;65236;42.332;23.550;2022-12-07T08:23:34;12.35;;;11.55;;
76298;SDS011;65236;42.332;23.550;2022-12-07T08:26:00;11.23;;;10.50;;
76298;SDS011;65236;42.332;23.550;2022-12-07T08:28:27;13.95;;;13.05;;
76298;SDS011;65236;42.332;23.550;2022-12-07T08:30:58;12.80;;;12.00;;
76298;SDS011;65236;42.332;23.550;2022-12-07T08:33:27;15.02;;;14.02;;
76298;SDS011;65236;42.332;23.550;2022-12-07T08:35:53;13.23;;;12.40;;
76298;SDS011;65236;42.332;23.550;2022-12-07T08:38:18;12.90;;;11.93;;
76298;SDS011;65236;42.332;23.550;2022-12-07T08:40:44;14.15;;;12.77;;
76298;SDS011;65236;42.332;23.550;2022-12-07T08:43:09;18.27;;;13.47;;
76298;SDS011;65236;42.332;23.550;2022-12-07T08:45:35;22.00;;;15.07;;
76298;SDS011;65236;42.332;23.550;2022-12-07T08:48:07;13.37;;;12.33;;
76298;SDS011;65236;42.332;23.550;2022-12-07T08:50:37;17.42;;;15.77;;
76298;SDS011;65236;42.332;23.550;2022-12-07T08:53:03;13.20;;;12.07;;
76298;SDS011;65236;42.332;23.550;2022-12-07T08:55:30;13.60;;;12.63;;
76298;SDS011;65236;42.332;23.550;2022-12-07T08:57:57;14.35;;;13.55;;
76298;SDS011;65236;42.332;23.550;2022-12-07T09:00:24;16.55;;;15.55;;
76298;SDS011;65236;42.332;23.550;2022-12-07T09:02:49;16.10;;;15.20;;
76298;SDS011;65236;42.332;23.550;2022-12-07T09:05:15;16.35;;;15.35;;
76298;SDS011;65236;42.332;23.550;2022-12-07T09:07:41;16.27;;;15.17;;
76298;SDS011;65236;42.332;23.550;2022-12-07T09:10:08;17.98;;;16.67;;
76298;SDS011;65236;42.332;23.550;2022-12-07T09:12:34;20.58;;;17.38;;
76298;SDS011;65236;42.332;23.550;2022-12-07T09:14:59;28.60;;;20.77;;
76298;SDS011;65236;42.332;23.550;2022-12-07T09:17:25;22.77;;;20.38;;
76298;SDS011;65236;42.332;23.550;2022-12-07T09:19:51;17.47;;;15.97;;
76298;SDS011;65236;42.332;23.550;2022-12-07T09:22:17;19.10;;;17.60;;
76298;SDS011;65236;42.332;23.550;2022-12-07T09:24:42;18.88;;;17.67;;
76298;SDS011;65236;42.332;23.550;2022-12-07T09:27:09;19.25;;;17.83;;
76298;SDS011;65236;42.332;23.550;2022-12-07T09:29:34;19.27;;;18.07;;
76298;SDS011;65236;42.332;23.550;2022-12-07T09:32:00;19.27;;;18.17;;
76298;SDS011;65236;42.332;23.550;2022-12-07T09:34:25;17.07;;;16.07;;
76298;SDS011;65236;42.332;23.550;2022-12-07T09:36:51;21.70;;;19.70;;
76298;SDS011;65236;42.332;23.550;2022-12-07T09:39:17;24.50;;;21.27;;
76298;SDS011;65236;42.332;23.550;2022-12-07T09:41:42;26.17;;;22.57;;
76298;SDS011;65236;42.332;23.550;2022-12-07T09:44:14;19.17;;;17.27;;
76298;SDS011;65236;42.332;23.550;2022-12-07T09:46:45;21.77;;;19.67;;
76298;SDS011;65236;42.332;23.550;2022-12-07T09:49:18;22.98;;;21.33;;
76298;SDS011;65236;42.332;23.550;2022-12-07T09:51:47;23.57;;;21.70;;
76298;SDS011;65236;42.332;23.550;2022-12-07T09:54:24;24.30;;;21.92;;
76298;SDS011;65236;42.332;23.550;2022-12-07T09:56:49;23.17;;;21.42;;
76298;SDS011;65236;42.332;23.550;2022-12-07T09:59:17;26.77;;;25.10;;
76298;SDS011;65236;42.332;23.550;2022-12-07T10:01:44;22.58;;;21.27;;
76298;SDS011;65236;42.332;23.550;2022-12-07T10:04:47;55.28;;;52.15;;
76298;SDS011;65236;42.332;23.550;2022-12-07T10:07:06;216.03;;;203.90;;
76298;SDS011;65236;42.332;23.550;2022-12-07T10:09:32;388.58;;;361.13;;
76298;SDS011;65236;42.332;23.550;2022-12-07T10:12:10;296.07;;;278.00;;
76298;SDS011;65236;42.332;23.550;2022-12-07T10:14:37;305.58;;;284.65;;
76298;SDS011;65236;42.332;23.550;2022-12-07T10:17:26;410.33;;;380.90;;
76298;SDS011;65236;42.332;23.550;2022-12-07T10:19:55;130.68;;;123.00;;
76298;SDS011;65236;42.332;23.550;2022-12-07T10:23:14;152.80;;;142.90;;
76298;SDS011;65236;42.332;23.550;2022-12-07T10:25:38;98.63;;;93.47;;
76298;SDS011;65236;42.332;23.550;2022-12-07T10:30:56;217.32;;;205.32;;
76298;SDS011;65236;42.332;23.550;2022-12-07T10:33:50;111.38;;;105.30;;
76298;SDS011;65236;42.332;23.550;2022-12-07T10:36:27;185.75;;;175.55;;
76298;SDS011;65236;42.332;23.550;2022-12-07T10:39:11;83.90;;;78.73;;
76298;SDS011;65236;42.332;23.550;2022-12-07T10:44:25;32.30;;;29.13;;
76298;SDS011;65236;42.332;23.550;2022-12-07T11:21:42;305.65;;;286.08;;
76298;SDS011;65236;42.332;23.550;2022-12-07T11:24:27;194.95;;;183.68;;
76298;SDS011;65236;42.332;23.550;2022-12-07T11:37:49;399.55;;;367.67;;
76298;SDS011;65236;42.332;23.550;2022-12-07T11:43:11;218.07;;;202.23;;
76298;SDS011;65236;42.332;23.550;2022-12-07T11:45:51;47.23;;;44.03;;
76298;SDS011;65236;42.332;23.550;2022-12-07T11:48:23;30.08;;;27.80;;
76298;SDS011;65236;42.332;23.550;2022-12-07T11:50:57;88.53;;;83.45;;
76298;SDS011;65236;42.332;23.550;2022-12-07T11:53:29;186.80;;;175.57;;
76298;SDS011;65236;42.332;23.550;2022-12-07T11:56:16;38.13;;;35.70;;
76298;SDS011;65236;42.332;23.550;2022-12-07T12:04:05;36.70;;;34.70;;
76298;SDS011;65236;42.332;23.550;2022-12-07T12:06:38;43.13;;;40.78;;
76298;SDS011;65236;42.332;23.550;2022-12-07T12:14:45;75.78;;;71.18;;
76298;SDS011;65236;42.332;23.550;2022-12-07T12:22:50;33.55;;;26.67;;
76298;SDS011;65236;42.332;23.550;2022-12-07T12:27:57;15.30;;;14.07;;
76298;SDS011;65236;42.332;23.550;2022-12-07T12:35:38;13.60;;;12.40;;
76298;SDS011;65236;42.332;23.550;2022-12-07T12:40:52;12.88;;;11.98;;
76298;SDS011;65236;42.332;23.550;2022-12-07T12:48:55;12.25;;;11.55;;
76298;SDS011;65236;42.332;23.550;2022-12-07T12:51:40;11.18;;;10.50;;
76298;SDS011;65236;42.332;23.550;2022-12-07T12:54:20;10.60;;;10.00;;
76298;SDS011;65236;42.332;23.550;2022-12-07T13:02:26;16.90;;;12.33;;
76298;SDS011;65236;42.332;23.550;2022-12-07T13:04:58;19.70;;;13.20;;
76298;SDS011;65236;42.332;23.550;2022-12-07T13:31:52;21.33;;;13.23;;
76298;SDS011;65236;42.332;23.550;2022-12-07T13:36:55;12.50;;;11.25;;
76298;SDS011;65236;42.332;23.550;2022-12-07T13:39:22;25.13;;;14.48;;
76298;SDS011;65236;42.332;23.550;2022-12-07T13:41:50;28.42;;;14.20;;
76298;SDS011;65236;42.332;23.550;2022-12-07T13:44:21;34.20;;;16.57;;
76298;SDS011;65236;42.332;23.550;2022-12-07T13:49:27;28.48;;;13.88;;
76298;SDS011;65236;42.332;23.550;2022-12-07T13:54:55;23.15;;;13.55;;
76298;SDS011;65236;42.332;23.550;2022-12-07T13:57:24;10.93;;;10.23;;
76298;SDS011;65236;42.332;23.550;2022-12-07T13:59:50;19.13;;;11.68;;
76298;SDS011;65236;42.332;23.550;2022-12-07T14:02:21;27.25;;;13.40;;
76298;SDS011;65236;42.332;23.550;2022-12-07T14:04:48;25.85;;;14.07;;
76298;SDS011;65236;42.332;23.550;2022-12-07T14:07:27;20.50;;;11.40;;
76298;SDS011;65236;42.332;23.550;2022-12-07T14:10:00;28.33;;;14.73;;
76298;SDS011;65236;42.332;23.550;2022-12-07T14:12:28;29.92;;;14.93;;
76298;SDS011;65236;42.332;23.550;2022-12-07T14:14:55;19.50;;;12.18;;
76298;SDS011;65236;42.332;23.550;2022-12-07T14:17:22;15.18;;;10.70;;
76298;SDS011;65236;42.332;23.550;2022-12-07T14:22:27;9.27;;;8.53;;
76298;SDS011;65236;42.332;23.550;2022-12-07T14:25:22;13.98;;;9.55;;
76298;SDS011;65236;42.332;23.550;2022-12-07T14:30:20;32.28;;;15.20;;
76298;SDS011;65236;42.332;23.550;2022-12-07T14:32:46;21.67;;;12.60;;
76298;SDS011;65236;42.332;23.550;2022-12-07T14:35:17;17.58;;;12.10;;
76298;SDS011;65236;42.332;23.550;2022-12-07T14:37:44;11.45;;;10.40;;
76298;SDS011;65236;42.332;23.550;2022-12-07T14:40:18;10.65;;;9.85;;
76298;SDS011;65236;42.332;23.550;2022-12-07T14:42:49;8.10;;;7.57;;
76298;SDS011;65236;42.332;23.550;2022-12-07T14:45:19;10.07;;;9.27;;
76298;SDS011;65236;42.332;23.550;2022-12-07T14:47:47;9.70;;;9.10;;
76298;SDS011;65236;42.332;23.550;2022-12-07T14:50:14;10.25;;;9.60;;
76298;SDS011;65236;42.332;23.550;2022-12-07T14:52:46;9.60;;;8.90;;
76298;SDS011;65236;42.332;23.550;2022-12-07T14:55:20;8.37;;;7.77;;
76298;SDS011;65236;42.332;23.550;2022-12-07T14:57:49;7.15;;;6.68;;
76298;SDS011;65236;42.332;23.550;2022-12-07T15:00:15;9.70;;;8.93;;
76298;SDS011;65236;42.332;23.550;2022-12-07T15:02:42;9.85;;;9.02;;
76298;SDS011;65236;42.332;23.550;2022-12-07T15:05:08;8.60;;;7.77;;
76298;SDS011;65236;42.332;23.550;2022-12-07T15:07:34;8.98;;;8.07;;
76298;SDS011;65236;42.332;23.550;2022-12-07T15:09:59;18.93;;;11.60;;
76298;SDS011;65236;42.332;23.550;2022-12-07T15:12:25;18.48;;;11.68;;
76298;SDS011;65236;42.332;23.550;2022-12-07T15:14:50;10.43;;;9.53;;
76298;SDS011;65236;42.332;23.550;2022-12-07T15:17:16;8.83;;;8.13;;
76298;SDS011;65236;42.332;23.550;2022-12-07T15:19:41;9.57;;;8.97;;
76298;SDS011;65236;42.332;23.550;2022-12-07T15:22:07;9.98;;;9.30;;
76298;SDS011;65236;42.332;23.550;2022-12-07T15:24:35;8.88;;;8.27;;
76298;SDS011;65236;42.332;23.550;2022-12-07T15:27:01;9.03;;;8.33;;
76298;SDS011;65236;42.332;23.550;2022-12-07T15:29:27;7.97;;;7.38;;
76298;SDS011;65236;42.332;23.550;2022-12-07T15:31:53;11.30;;;9.03;;
76298;SDS011;65236;42.332;23.550;2022-12-07T15:34:18;15.50;;;11.05;;
76298;SDS011;65236;42.332;23.550;2022-12-07T15:36:44;13.23;;;9.50;;
76298;SDS011;65236;42.332;23.550;2022-12-07T15:39:09;8.93;;;8.10;;
76298;SDS011;65236;42.332;23.550;2022-12-07T15:41:35;10.18;;;9.48;;
76298;SDS011;65236;42.332;23.550;2022-12-07T15:44:01;8.13;;;7.53;;
76298;SDS011;65236;42.332;23.550;2022-12-07T15:46:45;7.43;;;6.90;;
76298;SDS011;65236;42.332;23.550;2022-12-07T15:49:20;9.53;;;8.80;;
76298;SDS011;65236;42.332;23.550;2022-12-07T15:51:45;7.20;;;6.70;;
76298;SDS011;65236;42.332;23.550;2022-12-07T15:54:21;8.93;;;8.27;;
76298;SDS011;65236;42.332;23.550;2022-12-07T15:56:50;8.50;;;7.90;;
76298;SDS011;65236;42.332;23.550;2022-12-07T15:59:16;9.52;;;8.82;;
76298;SDS011;65236;42.332;23.550;2022-12-07T16:01:42;8.73;;;8.17;;
76298;SDS011;65236;42.332;23.550;2022-12-07T16:04:08;9.48;;;8.88;;
76298;SDS011;65236;42.332;23.550;2022-12-07T16:06:33;9.30;;;8.70;;
76298;SDS011;65236;42.332;23.550;2022-12-07T16:08:59;9.82;;;9.00;;
76298;SDS011;65236;42.332;23.550;2022-12-07T16:11:25;10.45;;;8.45;;
76298;SDS011;65236;42.332;23.550;2022-12-07T16:13:50;16.00;;;11.23;;
76298;SDS011;65236;42.332;23.550;2022-12-07T16:16:17;8.33;;;7.67;;
76298;SDS011;65236;42.332;23.550;2022-12-07T16:18:45;8.27;;;7.78;;
76298;SDS011;65236;42.332;23.550;2022-12-07T16:21:11;7.65;;;7.15;;
76298;SDS011;65236;42.332;23.550;2022-12-07T16:23:37;8.25;;;7.75;;
76298;SDS011;65236;42.332;23.550;2022-12-07T16:26:04;7.77;;;7.27;;
76298;SDS011;65236;42.332;23.550;2022-12-07T16:28:34;8.88;;;8.27;;
76298;SDS011;65236;42.332;23.550;2022-12-07T16:31:01;7.75;;;7.25;;
76298;SDS011;65236;42.332;23.550;2022-12-07T16:33:31;7.83;;;7.33;;
76298;SDS011;65236;42.332;23.550;2022-12-07T16:35:57;9.05;;;8.45;;
76298;SDS011;65236;42.332;23.550;2022-12-07T16:38:23;9.30;;;8.60;;
76298;SDS011;65236;42.332;23.550;2022-12-07T16:40:48;13.23;;;10.90;;
76298;SDS011;65236;42.332;23.550;2022-12-07T16:43:14;14.30;;;11.00;;
76298;SDS011;65236;42.332;23.550;2022-12-07T16:45:39;10.05;;;9.07;;
76298;SDS011;65236;42.332;23.550;2022-12-07T16:48:05;8.00;;;7.50;;
76298;SDS011;65236;42.332;23.550;2022-12-07T16:50:30;8.00;;;7.50;;
76298;SDS011;65236;42.332;23.550;2022-12-07T16:52:56;8.23;;;7.63;;
76298;SDS011;65236;42.332;23.550;2022-12-07T16:55:21;10.17;;;9.27;;
76298;SDS011;65236;42.332;23.550;2022-12-07T16:57:46;8.97;;;8.27;;
76298;SDS011;65236;42.332;23.550;2022-12-07T17:00:12;8.73;;;8.23;;
76298;SDS011;65236;42.332;23.550;2022-12-07T17:02:38;9.32;;;8.52;;
76298;SDS011;65236;42.332;23.550;2022-12-07T17:05:03;10.57;;;9.53;;
76298;SDS011;65236;42.332;23.550;2022-12-07T17:07:29;14.83;;;11.37;;
76298;SDS011;65236;42.332;23.550;2022-12-07T17:09:54;9.57;;;8.88;;
76298;SDS011;65236;42.332;23.550;2022-12-07T17:12:20;7.13;;;6.63;;